KDOV/DOV METAR and TAF weather

Enter ICAO airport designator
Station Type Date Time Source
KDOV METAR 2019/12/13 13:56 UTC NOAA

KDOV 131356Z AUTO 08005KT 10SM OVC006 06/06 A3035 RMK AO2 SLP281 T00620056 $


Station Type Date Time Source
KDOV Decoded METAR 2019/12/13 13:56 UTC NOAA

Dover Air Force Base, DE, United States (KDOV) 39-08N 075-28W
Dec 13, 2019 - 08:56 AM EST / 2019.12.13 1356 UTC
Wind: from the E (080 degrees) at 6 MPH (5 KT):0
Visibility: 10 mile(s):0
Sky conditions: overcast
Temperature: 43.2 F (6.2 C)
Dew Point: 42.1 F (5.6 C)
Relative Humidity: 95%
Pressure (altimeter): 30.35 in. Hg (1027 hPa)
ob: KDOV 131356Z AUTO 08005KT 10SM OVC006 06/06 A3035 RMK AO2 SLP281 T00620056
cycle: 14

Station Type Date Time Source
KDOV TAF 2019/12/13 13:48 UTC NOAA

TAF
AMD KDOV 131329Z 1313/1414 04006KT 9999 OVC008 QNH3025INS
TEMPO 1313/1316 OVC005
BECMG 1315/1316 09009KT 9999 BKN010 OVC020 QNH3021INS
TEMPO 1316/1319 BKN009
BECMG 1318/1319 09009KT 8000 -RA BR OVC009 QNH3003INS
TEMPO 1319/1322 3200 BR BKN005
BECMG 1321/1322 09009KT 3200 -RA BR OVC005 QNH3003INS
TEMPO 1322/1403 1200 BR BKN003
BECMG 1402/1403 08012KT 3200 -RA BR OVC006 QNH2970INS
TEMPO 1403/1405 1200 BR OVC001
BECMG 1404/1405 11012G20KT 4800 RA OVC006 QNH2950INS
BECMG 1410/1411 18012KT 6000 -RA BR OVC010 QNH2947INS TX10/1320Z TN03/1313Z

Example: see airport list